Latest Weather Observations for Rundle Island

IDQ60801

Issued at 3:22 pm EST Monday 30 March 2020 (issued every 10 minutes, with the page automatically refreshed every 10 minutes)

About weather observations | Map of weather stations | Latest weather observations for QLD | Other Formats
Station Details ID: 039322 Name: RUNDLE ISLAND Lat: -23.53 Lon: 151.28 Height: 19.8 m
Data from the previous 72 hours. | See also: Recent months at Rundle Island
Date/Time
EST
Temp
°C
App
Temp
°C
Dew
Point
°C
Rel
Hum
%
Delta-T
°C
Wind Press
QNH
hPa
Press
MSL
hPa
Rain since
9am
mm
Dir  Spd
km/h
Gust
km/h
Spd
kts
Gust
kts
30/03:00pm 26.0 - - - - ESE 19 20 10 11 1013.8 1013.6 -
30/02:30pm 26.1 - - - - ESE 19 22 10 12 1013.8 1013.6 -
30/02:00pm 25.6 - - - - SE 19 20 10 11 1014.1 1013.9 -
30/01:30pm 25.5 - - - - SE 22 24 12 13 1014.3 1014.1 -
30/01:00pm 25.6 - - - - SE 20 24 11 13 1014.5 1014.3 -
30/12:30pm 25.6 - - - - SE 20 22 11 12 1014.8 1014.6 -
30/12:00pm 25.9 - - - - SE 20 22 11 12 1015.0 1014.8 -
30/11:30am 25.5 - - - - SE 22 24 12 13 1015.5 1015.3 -
30/11:00am 25.5 - - - - SSE 22 26 12 14 1015.8 1015.6 -
30/10:30am 25.0 - - - - SSE 24 26 13 14 1015.9 1015.7 -
30/10:00am 24.8 - - - - SSE 22 26 12 14 1015.9 1015.7 -
30/09:30am 24.7 - - - - SSE 24 28 13 15 1015.8 1015.6 -
30/09:00am 24.6 - - - - SSE 22 26 12 14 1015.9 1015.7 -
30/08:30am 24.6 - - - - SSE 24 28 13 15 1015.9 1015.7 -
30/08:00am 24.4 - - - - SSE 20 24 11 13 1015.7 1015.5 -
30/07:30am 24.3 - - - - SSE 22 26 12 14 1015.5 1015.3 -
30/07:00am 24.1 - - - - SSE 24 28 13 15 1015.2 1015.0 -
30/06:30am 24.1 - - - - SE 22 24 12 13 1014.9 1014.7 -
30/06:00am 24.0 - - - - SSE 22 26 12 14 1014.5 1014.3 -
30/05:30am 23.9 - - - - SSE 26 32 14 17 1014.4 1014.2 -
30/05:00am 23.8 - - - - SSE 24 28 13 15 1014.3 1014.1 -
30/04:30am 24.0 - - - - SSE 22 26 12 14 1014.1 1013.9 -
30/04:00am 23.8 - - - - SSE 22 26 12 14 1014.2 1014.0 -
30/03:30am 25.0 - - - - ESE 19 20 10 11 1014.5 1014.3 -
30/03:00am 24.9 - - - - ESE 17 22 9 12 1014.7 1014.5 -
30/02:30am 24.4 - - - - SE 20 24 11 13 1015.1 1014.9 -
30/02:00am 24.2 - - - - SE 20 24 11 13 1015.0 1014.8 -
30/01:30am 25.4 - - - - E 15 20 8 11 1015.3 1015.1 -
30/01:00am 25.4 - - - - ESE 17 19 9 10 1015.7 1015.5 -
30/12:30am 25.4 - - - - ESE 19 22 10 12 1016.0 1015.8 -
30/12:00am 25.6 - - - - ESE 19 20 10 11 1016.2 1016.0 -
 
Date/Time
EST
Temp
°C
App
Temp
°C
Dew
Point
°C
Rel
Hum
%
Delta-T
°C
Wind Press
QNH
hPa
Press
MSL
hPa
Rain since
9am
mm
Dir  Spd
km/h
Gust
km/h
Spd
kts
Gust
kts
29/11:30pm 25.7 - - - - ESE 20 24 11 13 1016.4 1016.2 -
29/11:00pm 25.6 - - - - ESE 22 28 12 15 1016.3 1016.1 -
29/10:30pm 25.8 - - - - ESE 24 28 13 15 1016.5 1016.3 -
29/10:00pm 25.8 - - - - ESE 24 30 13 16 1016.5 1016.3 -
29/09:30pm 25.6 - - - - ESE 24 28 13 15 1016.4 1016.2 -
29/09:00pm 25.7 - - - - ESE 28 32 15 17 1016.0 1015.8 -
29/08:30pm 25.7 - - - - ESE 26 28 14 15 1015.9 1015.7 -
29/08:00pm 25.6 - - - - ESE 26 30 14 16 1015.7 1015.5 -
29/07:30pm 25.9 - - - - ESE 28 32 15 17 1015.3 1015.1 -
29/07:00pm 25.7 - - - - ESE 24 28 13 15 1015.2 1015.0 -
29/06:30pm 25.9 - - - - ESE 24 28 13 15 1015.1 1014.9 -
29/06:00pm 25.9 - - - - ESE 24 30 13 16 1014.8 1014.6 -
29/05:30pm 26.0 - - - - E 24 26 13 14 1014.6 1014.4 -
29/05:00pm 26.1 - - - - E 24 28 13 15 1014.2 1014.0 -
29/04:30pm 26.1 - - - - ESE 26 28 14 15 1014.1 1013.9 -
29/04:00pm 26.1 - - - - ESE 24 28 13 15 1014.3 1014.1 -
29/03:30pm 26.2 - - - - ESE 26 30 14 16 1014.2 1014.0 -
29/03:00pm 26.2 - - - - ESE 26 28 14 15 1014.4 1014.2 -
29/02:30pm 25.9 - - - - SE 19 22 10 12 1014.7 1014.5 -
29/02:00pm 25.8 - - - - SE 22 24 12 13 1014.9 1014.7 -
29/01:30pm 25.3 - - - - SE 24 28 13 15 1014.8 1014.6 -
29/01:00pm 25.5 - - - - SE 26 28 14 15 1015.0 1014.8 -
29/12:30pm 25.3 - - - - SE 26 32 14 17 1015.3 1015.1 -
29/12:00pm 25.3 - - - - SE 28 30 15 16 1015.8 1015.6 -
29/11:30am 25.0 - - - - SE 28 32 15 17 1015.9 1015.7 -
29/11:00am 25.1 - - - - SE 26 32 14 17 1016.1 1015.9 -
29/10:30am 24.4 - - - - SE 26 30 14 16 1016.4 1016.2 -
29/10:00am 24.6 - - - - SSE 26 28 14 15 1016.6 1016.4 -
29/09:30am 24.3 - - - - SSE 26 30 14 16 1016.6 1016.4 -
29/09:00am 24.3 - - - - SSE 28 32 15 17 1016.5 1016.3 -
29/08:30am 24.0 - - - - SSE 28 32 15 17 1016.4 1016.2 -
29/08:00am 24.2 - - - - SSE 28 32 15 17 1016.1 1015.9 -
29/07:30am 24.0 - - - - SE 28 32 15 17 1015.7 1015.5 -
29/07:00am 23.8 - - - - SE 30 35 16 19 1015.3 1015.1 -
29/06:30am 23.6 - - - - SE 33 37 18 20 1015.2 1015.0 -
29/06:00am 23.4 - - - - SSE 32 35 17 19 1014.8 1014.6 -
29/05:30am 23.4 - - - - SSE 30 33 16 18 1014.6 1014.4 -
29/05:00am 23.6 - - - - SE 32 35 17 19 1014.4 1014.2 -
29/04:30am 23.8 - - - - SE 32 37 17 20 1014.2 1014.0 -
29/04:00am 23.5 - - - - SSE 32 35 17 19 1013.9 1013.7 -
29/03:30am 23.6 - - - - SSE 30 33 16 18 1013.9 1013.7 -
29/03:00am 23.9 - - - - SSE 28 32 15 17 1014.0 1013.8 -
29/02:30am 24.0 - - - - SSE 28 32 15 17 1014.5 1014.3 -
29/02:00am 23.8 - - - - SSE 33 39 18 21 1014.9 1014.7 -
29/01:30am 24.0 - - - - SSE 30 33 16 18 1015.2 1015.0 -
29/01:00am 24.4 - - - - SSE 26 30 14 16 1015.3 1015.1 -
29/12:30am 24.3 - - - - SSE 30 32 16 17 1015.5 1015.3 -
29/12:00am 24.5 - - - - SSE 28 32 15 17 1015.8 1015.6 -
 
Date/Time
EST
Temp
°C
App
Temp
°C
Dew
Point
°C
Rel
Hum
%
Delta-T
°C
Wind Press
QNH
hPa
Press
MSL
hPa
Rain since
9am
mm
Dir  Spd
km/h
Gust
km/h
Spd
kts
Gust
kts
28/11:30pm 24.5 - - - - SSE 28 32 15 17 1016.0 1015.8 -
28/11:00pm 24.8 - - - - SSE 28 32 15 17 1016.4 1016.2 -
28/10:30pm 25.2 - - - - SE 30 35 16 19 1016.3 1016.1 -
28/10:00pm 25.3 - - - - SE 32 37 17 20 1016.5 1016.3 -
28/09:30pm 25.2 - - - - SE 32 37 17 20 1016.6 1016.4 -
28/09:00pm 25.5 - - - - ESE 32 37 17 20 1016.3 1016.1 -
28/08:30pm 25.3 - - - - SE 37 41 20 22 1016.1 1015.9 -
28/08:00pm 25.2 - - - - SE 35 43 19 23 1015.6 1015.4 -
28/07:30pm 25.2 - - - - SE 33 39 18 21 1015.3 1015.1 -
28/07:00pm 25.2 - - - - ESE 35 41 19 22 1015.2 1015.0 -
28/06:30pm 25.0 - - - - ESE 30 33 16 18 1014.7 1014.5 -
28/06:00pm 24.5 - - - - ESE 35 43 19 23 1014.8 1014.6 -
28/05:30pm 24.9 - - - - ESE 33 39 18 21 1014.8 1014.6 -
28/05:00pm 24.3 - - - - E 32 37 17 20 1014.7 1014.5 -
28/04:30pm 24.6 - - - - ESE 41 50 22 27 1014.3 1014.1 -
28/04:00pm 24.8 - - - - SE 37 43 20 23 1014.3 1014.1 -
28/03:30pm 25.2 - - - - SE 39 46 21 25 1014.3 1014.1 -
28/03:00pm 25.0 - - - - SE 39 46 21 25 1014.4 1014.2 -
28/02:30pm 25.2 - - - - SE 37 43 20 23 1014.6 1014.4 -
28/02:00pm 25.0 - - - - SE 37 41 20 22 1014.8 1014.6 -
28/01:30pm 25.1 - - - - SE 39 44 21 24 1015.0 1014.8 -
28/01:00pm 25.2 - - - - SE 39 43 21 23 1015.2 1015.0 -
28/12:30pm 25.1 - - - - SE 39 44 21 24 1015.5 1015.3 -
28/12:00pm 24.9 - - - - SE 37 43 20 23 1016.0 1015.8 -
28/11:30am 25.0 - - - - SE 37 43 20 23 1016.4 1016.2 -
28/11:00am 24.6 - - - - SE 37 43 20 23 1016.7 1016.5 -
28/10:30am 24.7 - - - - SSE 33 41 18 22 1016.9 1016.7 -
28/10:00am 24.4 - - - - SSE 37 43 20 23 1016.9 1016.7 -
28/09:30am 23.8 - - - - SSE 35 41 19 22 1016.9 1016.7 -
28/09:00am 23.4 - - - - SSE 33 39 18 21 1016.9 1016.7 -
28/08:30am 23.1 - - - - SSE 35 39 19 21 1016.9 1016.7 -
28/08:00am 23.0 - - - - SSE 35 41 19 22 1016.5 1016.3 -
28/07:30am 23.0 - - - - SSE 35 39 19 21 1016.0 1015.8 -
28/07:00am 22.4 - - - - SSE 32 35 17 19 1015.8 1015.6 -
28/06:30am 22.0 - - - - SSE 39 43 21 23 1015.4 1015.2 -
28/06:00am 22.2 - - - - S 32 35 17 19 1015.3 1015.1 -
28/05:30am 21.9 - - - - S 32 35 17 19 1015.2 1015.0 -
28/05:00am 23.0 - - - - SSE 35 41 19 22 1015.0 1014.8 -
28/04:30am 23.1 - - - - SSE 37 43 20 23 1014.8 1014.6 -
28/04:00am 23.4 - - - - SSE 39 44 21 24 1014.8 1014.6 -
28/03:30am 23.3 - - - - SSE 39 44 21 24 1015.0 1014.8 -
28/03:00am 23.3 - - - - SSE 37 44 20 24 1015.1 1014.9 -
28/02:30am 23.5 - - - - SSE 37 43 20 23 1015.1 1014.9 -
28/02:00am 23.6 - - - - SSE 41 46 22 25 1015.5 1015.3 -
28/01:30am 23.6 - - - - SSE 41 46 22 25 1015.8 1015.6 -
28/01:00am 23.9 - - - - SSE 41 46 22 25 1016.0 1015.8 -
28/12:30am 23.9 - - - - SSE 39 46 21 25 1016.3 1016.1 -
28/12:00am 24.0 - - - - SSE 41 46 22 25 1016.6 1016.4 -
 
Date/Time
EST
Temp
°C
App
Temp
°C
Dew
Point
°C
Rel
Hum
%
Delta-T
°C
Wind Press
QNH
hPa
Press
MSL
hPa
Rain since
9am
mm
Dir  Spd
km/h
Gust
km/h
Spd
kts
Gust
kts
27/11:43pm 24.5 - - - - SE 39 44 21 24 1016.9 1016.7 -
27/11:30pm 24.9 - - - - SE 39 44 21 24 1017.1 1016.9 -
27/11:00pm 25.3 - - - - SE 39 46 21 25 1017.3 1017.1 -
27/10:30pm 25.2 - - - - SE 41 48 22 26 1017.3 1017.1 -
27/10:00pm 25.4 - - - - SE 41 46 22 25 1017.4 1017.2 -
27/09:30pm 25.4 - - - - SE 41 48 22 26 1017.3 1017.1 -
27/09:00pm 25.4 - - - - SE 39 46 21 25 1017.1 1016.9 -
27/08:30pm 25.6 - - - - SE 39 44 21 24 1017.2 1017.0 -
27/08:00pm 25.5 - - - - ESE 39 44 21 24 1017.1 1016.9 -
27/07:30pm 25.5 - - - - SE 39 46 21 25 1016.7 1016.5 -
27/07:00pm 25.6 - - - - ESE 39 43 21 23 1016.3 1016.1 -
27/06:30pm 25.5 - - - - ESE 39 46 21 25 1015.9 1015.7 -
27/06:00pm 25.5 - - - - ESE 37 43 20 23 1015.6 1015.4 -
27/05:30pm 25.6 - - - - ESE 39 44 21 24 1015.6 1015.4 -
27/05:00pm 25.7 - - - - ESE 41 46 22 25 1015.5 1015.3 -
27/04:30pm 25.6 - - - - ESE 39 44 21 24 1015.3 1015.1 -
27/04:00pm 25.7 - - - - ESE 37 43 20 23 1015.3 1015.1 -
27/03:30pm 25.5 - - - - SE 39 43 21 23 1015.4 1015.2 -

Other formats

Comma delimited format used in spreadsheet applications
http://www.bom.gov.au/fwo/IDQ60801/IDQ60801.94378.axf

JavaScript Object Notation format (JSON) in row-major order
http://www.bom.gov.au/fwo/IDQ60801/IDQ60801.94378.json

Data quality

Most of these data are generated automatically and are frequently updated. Quality checks on data are not normally performed. It is possible for incorrect values to appear. Refer to information at About Latest Weather Observations and please check the disclaimer before using these data.